createdAt,value
2017-12-12T00:00:12.147Z,976.69
2017-12-12T00:00:47.430Z,976.70
2017-12-12T00:01:22.849Z,976.71
2017-12-12T00:01:58.155Z,976.73
2017-12-12T00:02:33.472Z,976.75
2017-12-12T00:03:08.593Z,976.76
2017-12-12T00:03:43.707Z,976.80
2017-12-12T00:04:19.091Z,976.79
2017-12-12T00:04:54.307Z,976.77
2017-12-12T00:05:29.411Z,976.83
2017-12-12T00:06:04.914Z,976.81
2017-12-12T00:06:41.313Z,976.81
2017-12-12T00:07:16.826Z,976.82
2017-12-12T00:07:52.113Z,976.86
2017-12-12T00:08:27.549Z,976.88
2017-12-12T00:09:02.838Z,976.86
2017-12-12T00:09:38.545Z,976.93
2017-12-12T00:10:13.832Z,976.94
2017-12-12T00:10:50.346Z,976.99
2017-12-12T00:11:25.832Z,977.00
2017-12-12T00:12:01.144Z,977.04
2017-12-12T00:12:36.639Z,977.02
2017-12-12T00:13:13.349Z,977.01
2017-12-12T00:13:48.682Z,977.05
2017-12-12T00:14:23.893Z,977.13
2017-12-12T00:15:00.275Z,977.12
2017-12-12T00:15:36.090Z,977.12
2017-12-12T00:16:12.169Z,977.16
2017-12-12T00:16:47.886Z,977.14
2017-12-12T00:17:23.670Z,977.16
2017-12-12T00:17:58.882Z,977.19
2017-12-12T00:18:34.468Z,977.21
2017-12-12T00:19:09.823Z,977.19
2017-12-12T00:19:46.112Z,977.17
2017-12-12T00:20:21.322Z,977.20
2017-12-12T00:20:56.816Z,977.24
2017-12-12T00:21:32.229Z,977.23
2017-12-12T00:22:07.526Z,977.23
2017-12-12T00:22:42.839Z,977.25
2017-12-12T00:23:18.320Z,977.29
2017-12-12T00:23:53.736Z,977.30
2017-12-12T00:24:29.059Z,977.28
2017-12-12T00:25:04.410Z,977.32
2017-12-12T00:25:40.090Z,977.33
2017-12-12T00:26:15.708Z,977.33
2017-12-12T00:26:50.997Z,977.36
2017-12-12T00:27:26.517Z,977.35
2017-12-12T00:28:02.209Z,977.36
2017-12-12T00:28:37.824Z,977.41
2017-12-12T00:29:13.711Z,977.41
2017-12-12T00:29:49.052Z,977.48
2017-12-12T00:30:24.541Z,977.55
2017-12-12T00:30:59.661Z,977.51
2017-12-12T00:31:35.353Z,977.48
2017-12-12T00:32:10.564Z,977.53
2017-12-12T00:32:46.047Z,977.57
2017-12-12T00:33:21.586Z,977.57
2017-12-12T00:33:57.268Z,977.59
2017-12-12T00:34:32.586Z,977.67
2017-12-12T00:35:07.903Z,977.71
2017-12-12T00:35:43.534Z,977.72
2017-12-12T00:36:18.926Z,977.73
2017-12-12T00:36:54.239Z,977.78
2017-12-12T00:37:29.936Z,977.80
2017-12-12T00:38:05.249Z,977.83
2017-12-12T00:38:40.654Z,977.83
2017-12-12T00:39:15.893Z,977.88
2017-12-12T00:39:51.075Z,977.87
2017-12-12T00:40:26.530Z,977.88
2017-12-12T00:41:01.812Z,977.92
2017-12-12T00:41:37.459Z,977.93
2017-12-12T00:42:12.945Z,977.98
2017-12-12T00:42:49.068Z,977.96
2017-12-12T00:43:24.558Z,978.02
2017-12-12T00:43:59.779Z,978.08
2017-12-12T00:44:35.075Z,978.08
2017-12-12T00:45:10.289Z,978.11
2017-12-12T00:45:45.712Z,978.14
2017-12-12T00:46:21.044Z,978.16
2017-12-12T00:46:56.527Z,978.18
2017-12-12T00:47:32.045Z,978.22
2017-12-12T00:48:07.535Z,978.27
2017-12-12T00:48:42.860Z,978.28
2017-12-12T00:49:18.549Z,978.26
2017-12-12T00:49:53.876Z,978.30
2017-12-12T00:50:29.467Z,978.31
2017-12-12T00:51:04.918Z,978.34
2017-12-12T00:51:40.214Z,978.31
2017-12-12T00:52:15.733Z,978.34
2017-12-12T00:52:50.925Z,978.37
2017-12-12T00:53:26.545Z,978.34
2017-12-12T00:54:01.939Z,978.36
2017-12-12T00:54:37.478Z,978.43
2017-12-12T00:55:12.764Z,978.42
2017-12-12T00:55:48.192Z,978.45
2017-12-12T00:56:23.412Z,978.46
2017-12-12T00:56:58.929Z,978.48
2017-12-12T00:57:34.115Z,978.59
2017-12-12T00:58:09.639Z,978.56
2017-12-12T00:58:44.935Z,978.59
2017-12-12T00:59:20.749Z,978.66
2017-12-12T00:59:56.145Z,978.63
2017-12-12T01:00:31.458Z,978.66
2017-12-12T01:01:06.852Z,978.64
2017-12-12T01:01:42.191Z,978.67
2017-12-12T01:02:17.485Z,978.70
2017-12-12T01:02:54.612Z,978.73
2017-12-12T01:03:30.294Z,978.72
2017-12-12T01:04:05.929Z,978.75
2017-12-12T01:04:41.221Z,978.77
2017-12-12T01:05:16.475Z,978.79
2017-12-12T01:05:51.962Z,978.79
2017-12-12T01:06:27.404Z,978.84
2017-12-12T01:07:02.732Z,978.83
2017-12-12T01:07:38.507Z,978.87
2017-12-12T01:08:13.907Z,978.94
2017-12-12T01:08:49.116Z,978.96
2017-12-12T01:09:24.532Z,978.96
2017-12-12T01:10:00.028Z,978.95
2017-12-12T01:10:35.819Z,979.01
2017-12-12T01:11:11.249Z,979.04
2017-12-12T01:11:46.634Z,979.07
2017-12-12T01:12:21.908Z,979.09
2017-12-12T01:12:57.608Z,979.14
2017-12-12T01:13:33.232Z,979.17
2017-12-12T01:14:08.819Z,979.21
2017-12-12T01:14:44.260Z,979.22
2017-12-12T01:15:19.349Z,979.25
2017-12-12T01:15:54.573Z,979.24
2017-12-12T01:16:29.858Z,979.25
2017-12-12T01:17:05.472Z,979.26
2017-12-12T01:17:40.791Z,979.25
2017-12-12T01:18:16.004Z,979.29
2017-12-12T01:18:51.589Z,979.33
2017-12-12T01:19:27.214Z,979.36
2017-12-12T01:20:02.609Z,979.32
2017-12-12T01:20:38.038Z,979.43
2017-12-12T01:21:13.327Z,979.41
2017-12-12T01:21:48.847Z,979.49
2017-12-12T01:22:24.237Z,979.49
2017-12-12T01:22:59.598Z,979.45
2017-12-12T01:23:35.589Z,979.50
2017-12-12T01:24:10.909Z,979.54
2017-12-12T01:24:46.099Z,979.55
2017-12-12T01:25:21.338Z,979.60
2017-12-12T01:25:57.343Z,979.63
2017-12-12T01:26:32.658Z,979.67
2017-12-12T01:27:08.159Z,979.70
2017-12-12T01:27:43.775Z,979.74
2017-12-12T01:28:19.089Z,979.77
2017-12-12T01:28:54.310Z,979.79
2017-12-12T01:29:29.696Z,979.82
2017-12-12T01:30:05.121Z,979.87
2017-12-12T01:30:42.526Z,979.91
2017-12-12T01:31:17.958Z,979.92
2017-12-12T01:31:53.347Z,979.95
2017-12-12T01:32:28.772Z,979.95
2017-12-12T01:33:04.175Z,980.01
2017-12-12T01:33:39.727Z,980.01
2017-12-12T01:34:14.916Z,980.02
2017-12-12T01:34:50.529Z,980.05
2017-12-12T01:35:25.834Z,980.10
2017-12-12T01:36:01.257Z,980.10
2017-12-12T01:36:36.647Z,980.07
2017-12-12T01:37:12.369Z,980.08
2017-12-12T01:37:48.061Z,980.09
2017-12-12T01:38:23.603Z,980.15
2017-12-12T01:38:59.128Z,980.13
2017-12-12T01:39:35.164Z,980.17
2017-12-12T01:40:10.354Z,980.17
2017-12-12T01:40:45.678Z,980.18
2017-12-12T01:41:21.170Z,980.21
2017-12-12T01:41:56.614Z,980.20
2017-12-12T01:42:32.112Z,980.25
2017-12-12T01:43:07.628Z,980.26
2017-12-12T01:43:43.964Z,980.27
2017-12-12T01:44:19.610Z,980.29
2017-12-12T01:44:56.790Z,980.36
2017-12-12T01:45:32.133Z,980.36
2017-12-12T01:46:07.223Z,980.39
2017-12-12T01:46:42.647Z,980.38
2017-12-12T01:47:17.935Z,980.43
2017-12-12T01:47:53.364Z,980.45
2017-12-12T01:48:28.748Z,980.47
2017-12-12T01:49:04.396Z,980.49
2017-12-12T01:49:39.589Z,980.55
2017-12-12T01:50:15.009Z,980.55
2017-12-12T01:50:50.513Z,980.57
2017-12-12T01:51:26.126Z,980.60
2017-12-12T01:52:01.723Z,980.63
2017-12-12T01:52:37.447Z,980.63
2017-12-12T01:53:12.872Z,980.64
2017-12-12T01:53:48.454Z,980.58
2017-12-12T01:54:23.975Z,980.67
2017-12-12T01:54:59.510Z,980.66
2017-12-12T01:55:34.892Z,980.76
2017-12-12T01:56:10.513Z,980.75
2017-12-12T01:56:45.905Z,980.77
2017-12-12T01:57:21.342Z,980.77
2017-12-12T01:57:56.849Z,980.82
2017-12-12T01:58:32.171Z,980.82
2017-12-12T01:59:07.581Z,980.84
2017-12-12T01:59:43.036Z,980.88
2017-12-12T02:00:18.628Z,980.90
2017-12-12T02:00:54.057Z,980.94
2017-12-12T02:01:29.655Z,980.98
2017-12-12T02:02:05.279Z,980.95
2017-12-12T02:02:40.580Z,981.02
2017-12-12T02:03:15.901Z,981.09
2017-12-12T02:03:51.210Z,981.09
2017-12-12T02:04:26.637Z,981.09
2017-12-12T02:05:02.161Z,981.18
2017-12-12T02:05:38.177Z,981.19
2017-12-12T02:06:13.574Z,981.17
2017-12-12T02:06:48.895Z,981.15
2017-12-12T02:07:24.286Z,981.23
2017-12-12T02:07:59.913Z,981.23
2017-12-12T02:08:35.215Z,981.27
2017-12-12T02:09:10.243Z,981.29
2017-12-12T02:09:45.735Z,981.35
2017-12-12T02:10:20.990Z,981.34
2017-12-12T02:10:56.582Z,981.33
2017-12-12T02:11:32.117Z,981.42
2017-12-12T02:12:07.410Z,981.37
2017-12-12T02:12:43.541Z,981.46
2017-12-12T02:13:19.235Z,981.44
2017-12-12T02:13:54.560Z,981.51
2017-12-12T02:14:30.159Z,981.49
2017-12-12T02:15:05.381Z,981.56
2017-12-12T02:15:41.933Z,981.54
2017-12-12T02:16:17.351Z,981.54
2017-12-12T02:16:52.850Z,981.58
2017-12-12T02:17:28.388Z,981.59
2017-12-12T02:18:03.696Z,981.62
2017-12-12T02:18:39.637Z,981.66
2017-12-12T02:19:14.931Z,981.65
2017-12-12T02:19:50.361Z,981.64
2017-12-12T02:20:26.153Z,981.71
2017-12-12T02:21:01.502Z,981.72
2017-12-12T02:21:36.795Z,981.71
2017-12-12T02:22:12.431Z,981.75
2017-12-12T02:22:47.821Z,981.78
2017-12-12T02:23:23.243Z,981.83
2017-12-12T02:23:58.534Z,981.82
2017-12-12T02:24:34.260Z,981.89
2017-12-12T02:25:09.754Z,981.85
2017-12-12T02:25:45.075Z,981.90
2017-12-12T02:26:20.506Z,981.87
2017-12-12T02:26:56.038Z,981.89
2017-12-12T02:27:31.344Z,981.96
2017-12-12T02:28:06.572Z,981.95
2017-12-12T02:28:42.178Z,981.96
2017-12-12T02:29:17.603Z,982.01
2017-12-12T02:29:53.002Z,982.02
2017-12-12T02:30:28.427Z,982.04
2017-12-12T02:31:03.720Z,982.09
2017-12-12T02:31:39.483Z,982.09
2017-12-12T02:32:14.783Z,982.15
2017-12-12T02:32:50.204Z,982.17
2017-12-12T02:33:25.548Z,982.16
2017-12-12T02:34:00.772Z,982.19
2017-12-12T02:34:36.278Z,982.25
2017-12-12T02:35:11.708Z,982.24
2017-12-12T02:35:47.014Z,982.27
2017-12-12T02:36:22.346Z,982.30
2017-12-12T02:36:57.661Z,982.33
2017-12-12T02:37:33.185Z,982.34
2017-12-12T02:38:08.783Z,982.38
2017-12-12T02:38:44.210Z,982.42
2017-12-12T02:39:19.514Z,982.41
2017-12-12T02:39:54.933Z,982.46
2017-12-12T02:40:30.626Z,982.42
2017-12-12T02:41:06.252Z,982.46
2017-12-12T02:41:41.962Z,982.45
2017-12-12T02:42:17.615Z,982.44
2017-12-12T02:42:52.813Z,982.48
2017-12-12T02:43:28.435Z,982.53
2017-12-12T02:44:03.931Z,982.49
2017-12-12T02:44:39.481Z,982.57
2017-12-12T02:45:14.880Z,982.57
2017-12-12T02:45:50.314Z,982.60
2017-12-12T02:46:25.905Z,982.60
2017-12-12T02:47:01.248Z,982.60
2017-12-12T02:47:37.074Z,982.70
2017-12-12T02:48:12.491Z,982.67
2017-12-12T02:48:47.889Z,982.72
2017-12-12T02:49:23.112Z,982.73
2017-12-12T02:50:01.410Z,982.77
2017-12-12T02:50:37.941Z,982.78
2017-12-12T02:51:13.231Z,982.79
2017-12-12T02:51:49.061Z,982.86
2017-12-12T02:52:24.363Z,982.86
2017-12-12T02:52:59.718Z,982.91
2017-12-12T02:53:35.515Z,982.94
2017-12-12T02:54:10.737Z,982.94
2017-12-12T02:54:45.939Z,982.98
2017-12-12T02:55:21.367Z,982.99
2017-12-12T02:55:56.871Z,983.01
2017-12-12T02:56:39.099Z,983.07
2017-12-12T02:57:14.292Z,983.09
2017-12-12T02:57:49.612Z,983.12
2017-12-12T02:58:25.028Z,983.11
2017-12-12T02:59:00.370Z,983.18
2017-12-12T02:59:35.862Z,983.18
2017-12-12T03:00:11.334Z,983.24
2017-12-12T03:00:46.921Z,983.23
2017-12-12T03:01:22.144Z,983.28
2017-12-12T03:01:57.234Z,983.28
2017-12-12T03:02:32.454Z,983.26
2017-12-12T03:03:08.046Z,983.25
2017-12-12T03:03:43.517Z,983.26
2017-12-12T03:04:18.734Z,983.33
2017-12-12T03:04:53.972Z,983.30
2017-12-12T03:05:29.170Z,983.31
2017-12-12T03:06:05.003Z,983.36
2017-12-12T03:06:41.117Z,983.40
2017-12-12T03:07:16.625Z,983.47
2017-12-12T03:07:52.020Z,983.39
2017-12-12T03:08:27.647Z,983.49
2017-12-12T03:09:02.968Z,983.48
2017-12-12T03:09:38.488Z,983.55
2017-12-12T03:10:14.074Z,983.55
2017-12-12T03:10:49.597Z,983.58
2017-12-12T03:11:24.889Z,983.59
2017-12-12T03:12:00.308Z,983.60
2017-12-12T03:12:36.000Z,983.60
2017-12-12T03:13:11.722Z,983.64
2017-12-12T03:13:49.158Z,983.68
2017-12-12T03:14:24.597Z,983.67
2017-12-12T03:14:59.893Z,983.68
2017-12-12T03:15:35.322Z,983.70
2017-12-12T03:16:10.803Z,983.72
2017-12-12T03:16:46.236Z,983.74
2017-12-12T03:17:21.727Z,983.73
2017-12-12T03:17:57.130Z,983.83
2017-12-12T03:18:32.814Z,983.77
2017-12-12T03:19:08.129Z,983.84
2017-12-12T03:19:43.755Z,983.85
2017-12-12T03:20:19.263Z,983.86
2017-12-12T03:20:54.764Z,983.92
2017-12-12T03:21:30.179Z,983.93
2017-12-12T03:22:05.669Z,984.00
2017-12-12T03:22:41.180Z,984.03
2017-12-12T03:23:16.572Z,984.05
2017-12-12T03:23:51.799Z,984.08
2017-12-12T03:24:26.993Z,984.12
2017-12-12T03:25:02.257Z,984.08
2017-12-12T03:25:38.178Z,984.07
2017-12-12T03:26:13.900Z,984.16
2017-12-12T03:26:49.700Z,984.18
2017-12-12T03:27:25.022Z,984.24
2017-12-12T03:28:00.402Z,984.21
2017-12-12T03:28:36.120Z,984.25
2017-12-12T03:29:11.420Z,984.27
2017-12-12T03:29:46.853Z,984.33
2017-12-12T03:30:22.371Z,984.37
2017-12-12T03:30:57.681Z,984.35
2017-12-12T03:31:33.379Z,984.37
2017-12-12T03:32:09.032Z,984.39
2017-12-12T03:32:44.618Z,984.40
2017-12-12T03:33:20.240Z,984.38
2017-12-12T03:33:55.830Z,984.44
2017-12-12T03:34:31.655Z,984.44
2017-12-12T03:35:07.045Z,984.47
2017-12-12T03:35:42.697Z,984.47
2017-12-12T03:36:17.886Z,984.54
2017-12-12T03:36:53.628Z,984.52
2017-12-12T03:37:29.319Z,984.63
2017-12-12T03:38:04.658Z,984.65
2017-12-12T03:38:40.049Z,984.67
2017-12-12T03:39:15.671Z,984.73
2017-12-12T03:39:51.069Z,984.77
2017-12-12T03:40:26.183Z,984.76
2017-12-12T03:41:01.608Z,984.79
2017-12-12T03:41:37.037Z,984.86
2017-12-12T03:42:12.319Z,984.86
2017-12-12T03:42:49.340Z,984.94
2017-12-12T03:43:25.030Z,984.91
2017-12-12T03:44:00.557Z,984.97
2017-12-12T03:44:35.964Z,985.02
2017-12-12T03:45:11.281Z,985.00
2017-12-12T03:45:46.779Z,984.94
2017-12-12T03:46:22.225Z,985.04
2017-12-12T03:46:57.518Z,985.05
2017-12-12T03:47:33.139Z,985.16
2017-12-12T03:48:08.528Z,985.13
2017-12-12T03:48:43.749Z,985.13
2017-12-12T03:49:19.338Z,985.17
2017-12-12T03:49:54.765Z,985.21
2017-12-12T03:50:30.653Z,985.25
2017-12-12T03:51:06.096Z,985.25
2017-12-12T03:51:41.624Z,985.28
2017-12-12T03:52:16.761Z,985.33
2017-12-12T03:52:52.066Z,985.32
2017-12-12T03:53:27.392Z,985.35
2017-12-12T03:54:02.602Z,985.44
2017-12-12T03:54:38.219Z,985.41
2017-12-12T03:55:13.531Z,985.40
2017-12-12T03:55:49.262Z,985.41
2017-12-12T03:56:24.480Z,985.45
2017-12-12T03:57:00.006Z,985.46
2017-12-12T03:57:35.700Z,985.48
2017-12-12T03:58:11.443Z,985.53
2017-12-12T03:58:46.836Z,985.55
2017-12-12T03:59:22.263Z,985.57
2017-12-12T03:59:57.561Z,985.57
2017-12-12T04:00:33.387Z,985.65
2017-12-12T04:01:08.700Z,985.67
2017-12-12T04:01:44.351Z,985.70
2017-12-12T04:02:19.846Z,985.70
2017-12-12T04:02:55.170Z,985.72
2017-12-12T04:03:31.065Z,985.75
2017-12-12T04:04:06.489Z,985.80
2017-12-12T04:04:41.696Z,985.77
2017-12-12T04:05:17.114Z,985.90
2017-12-12T04:05:52.511Z,985.86
2017-12-12T04:06:27.636Z,985.89
2017-12-12T04:07:02.961Z,985.93
2017-12-12T04:07:44.097Z,985.97
2017-12-12T04:08:19.393Z,985.94
2017-12-12T04:08:54.812Z,986.02
2017-12-12T04:09:30.312Z,986.03
2017-12-12T04:10:05.529Z,986.06
2017-12-12T04:10:41.527Z,986.13
2017-12-12T04:11:16.752Z,986.08
2017-12-12T04:11:51.753Z,986.15
2017-12-12T04:12:27.701Z,986.12
2017-12-12T04:13:03.397Z,986.18
2017-12-12T04:13:39.920Z,986.24
2017-12-12T04:14:15.211Z,986.21
2017-12-12T04:14:50.441Z,986.22
2017-12-12T04:15:25.540Z,986.24
2017-12-12T04:16:00.566Z,986.32
2017-12-12T04:16:36.064Z,986.22
2017-12-12T04:17:11.387Z,986.32
2017-12-12T04:17:46.807Z,986.39
2017-12-12T04:18:22.430Z,986.43
2017-12-12T04:18:57.831Z,986.36
2017-12-12T04:19:33.157Z,986.42
2017-12-12T04:20:08.984Z,986.45
2017-12-12T04:20:44.508Z,986.36
2017-12-12T04:21:20.001Z,986.50
2017-12-12T04:21:55.537Z,986.46
2017-12-12T04:22:30.938Z,986.47
2017-12-12T04:23:06.998Z,986.50
2017-12-12T04:23:42.393Z,986.46
2017-12-12T04:24:18.020Z,986.51
2017-12-12T04:24:53.808Z,986.56
2017-12-12T04:25:29.036Z,986.61
2017-12-12T04:26:04.445Z,986.64
2017-12-12T04:26:39.862Z,986.68
2017-12-12T04:27:15.260Z,986.66
2017-12-12T04:27:50.686Z,986.73
2017-12-12T04:28:26.314Z,986.79
2017-12-12T04:29:01.435Z,986.72
2017-12-12T04:29:37.352Z,986.77
2017-12-12T04:30:12.986Z,986.76
2017-12-12T04:30:48.497Z,986.81
2017-12-12T04:31:24.015Z,986.84
2017-12-12T04:31:59.418Z,986.85
2017-12-12T04:32:34.847Z,986.82
2017-12-12T04:33:10.274Z,986.92
2017-12-12T04:33:45.656Z,986.90
2017-12-12T04:34:21.161Z,986.89
2017-12-12T04:34:56.482Z,986.91
2017-12-12T04:35:31.886Z,986.92
2017-12-12T04:36:07.317Z,986.97
2017-12-12T04:36:42.821Z,987.01
2017-12-12T04:37:18.155Z,987.02
2017-12-12T04:37:53.649Z,987.03
2017-12-12T04:38:29.187Z,987.07
2017-12-12T04:39:04.703Z,987.13
2017-12-12T04:39:40.338Z,987.16
2017-12-12T04:40:15.831Z,987.14
2017-12-12T04:40:51.354Z,987.19
2017-12-12T04:41:26.948Z,987.23
2017-12-12T04:42:02.570Z,987.28
2017-12-12T04:42:38.069Z,987.29
2017-12-12T04:43:13.751Z,987.32
2017-12-12T04:43:49.161Z,987.31
2017-12-12T04:44:24.625Z,987.31
2017-12-12T04:45:00.330Z,987.35
2017-12-12T04:45:36.157Z,987.40
2017-12-12T04:46:11.663Z,987.41
2017-12-12T04:46:47.091Z,987.43
2017-12-12T04:47:22.684Z,987.41
2017-12-12T04:48:01.327Z,987.46
2017-12-12T04:48:36.431Z,987.54
2017-12-12T04:49:11.753Z,987.53
2017-12-12T04:49:47.088Z,987.57
2017-12-12T04:50:22.613Z,987.60
2017-12-12T04:50:57.809Z,987.60
2017-12-12T04:51:33.235Z,987.63
2017-12-12T04:52:08.835Z,987.65
2017-12-12T04:52:44.375Z,987.70
2017-12-12T04:53:19.966Z,987.71
2017-12-12T04:53:55.778Z,987.73
2017-12-12T04:54:31.380Z,987.76
2017-12-12T04:55:06.733Z,987.80
2017-12-12T04:55:42.420Z,987.77
2017-12-12T04:56:17.659Z,987.79
2017-12-12T04:56:52.950Z,987.85
2017-12-12T04:57:28.996Z,987.85
2017-12-12T04:58:04.295Z,987.88
2017-12-12T04:58:39.426Z,987.84
2017-12-12T04:59:15.019Z,987.88
2017-12-12T04:59:50.641Z,987.91
2017-12-12T05:00:26.066Z,987.93
2017-12-12T05:01:01.584Z,988.02
2017-12-12T05:01:37.079Z,988.00
2017-12-12T05:02:12.502Z,988.00
2017-12-12T05:02:47.912Z,988.02
2017-12-12T05:03:23.236Z,988.06
2017-12-12T05:03:58.530Z,988.05
2017-12-12T05:04:33.951Z,988.14
2017-12-12T05:05:09.545Z,988.13
2017-12-12T05:05:44.992Z,988.16
2017-12-12T05:06:20.384Z,988.18
2017-12-12T05:06:56.103Z,988.20
2017-12-12T05:07:31.301Z,988.25
2017-12-12T05:08:06.931Z,988.22
2017-12-12T05:08:42.228Z,988.28
2017-12-12T05:09:17.553Z,988.25
2017-12-12T05:09:52.948Z,988.32
2017-12-12T05:10:28.665Z,988.36
2017-12-12T05:11:03.990Z,988.33
2017-12-12T05:11:39.613Z,988.44
2017-12-12T05:12:18.219Z,988.50
2017-12-12T05:12:53.549Z,988.44
2017-12-12T05:13:29.237Z,988.52
2017-12-12T05:14:04.666Z,988.54
2017-12-12T05:14:40.155Z,988.55
2017-12-12T05:15:15.789Z,988.57
2017-12-12T05:15:51.191Z,988.54
2017-12-12T05:16:26.551Z,988.59
2017-12-12T05:17:01.754Z,988.63
2017-12-12T05:17:37.482Z,988.53
2017-12-12T05:18:12.681Z,988.60
2017-12-12T05:18:48.110Z,988.59
2017-12-12T05:19:23.914Z,988.60
2017-12-12T05:19:59.234Z,988.65
2017-12-12T05:20:34.527Z,988.71
2017-12-12T05:21:09.952Z,988.80
2017-12-12T05:21:45.369Z,988.77
2017-12-12T05:22:21.195Z,988.79
2017-12-12T05:22:57.103Z,988.88
2017-12-12T05:23:32.535Z,988.88
2017-12-12T05:24:08.031Z,988.89
2017-12-12T05:24:43.578Z,988.92
2017-12-12T05:25:19.387Z,988.92
2017-12-12T05:25:55.003Z,989.01
2017-12-12T05:26:30.595Z,988.99
2017-12-12T05:27:05.959Z,988.98
2017-12-12T05:27:41.355Z,988.98
2017-12-12T05:28:16.884Z,988.96
2017-12-12T05:28:52.483Z,989.07
2017-12-12T05:29:28.212Z,989.05
2017-12-12T05:30:04.017Z,989.05
2017-12-12T05:30:39.941Z,989.06
2017-12-12T05:31:15.436Z,989.13
2017-12-12T05:31:50.794Z,989.16
2017-12-12T05:32:26.087Z,989.20
2017-12-12T05:33:01.804Z,989.18
2017-12-12T05:33:37.504Z,989.18
2017-12-12T05:34:12.831Z,989.23
2017-12-12T05:34:48.323Z,989.19
2017-12-12T05:35:23.838Z,989.26
2017-12-12T05:35:59.347Z,989.21
2017-12-12T05:36:35.270Z,989.25
2017-12-12T05:37:10.869Z,989.34
2017-12-12T05:37:46.421Z,989.28
2017-12-12T05:38:22.025Z,989.39
2017-12-12T05:38:57.154Z,989.32
2017-12-12T05:39:32.446Z,989.36
2017-12-12T05:40:07.882Z,989.35
2017-12-12T05:40:44.667Z,989.43
2017-12-12T05:41:20.089Z,989.40
2017-12-12T05:41:55.804Z,989.43
2017-12-12T05:42:31.124Z,989.48
2017-12-12T05:43:06.845Z,989.47
2017-12-12T05:43:42.288Z,989.48
2017-12-12T05:44:17.988Z,989.57
2017-12-12T05:44:53.618Z,989.60
2017-12-12T05:45:29.109Z,989.52
2017-12-12T05:46:04.541Z,989.58
2017-12-12T05:46:40.029Z,989.62
2017-12-12T05:47:15.554Z,989.63
2017-12-12T05:47:50.937Z,989.58
2017-12-12T05:48:26.499Z,989.60
2017-12-12T05:49:02.201Z,989.61
2017-12-12T05:49:37.634Z,989.61
2017-12-12T05:50:13.143Z,989.63
2017-12-12T05:50:48.858Z,989.61
2017-12-12T05:51:23.853Z,989.70
2017-12-12T05:51:59.379Z,989.68
2017-12-12T05:52:34.769Z,989.71
2017-12-12T05:53:10.925Z,989.71
2017-12-12T05:53:47.418Z,989.76
2017-12-12T05:54:22.859Z,989.77
2017-12-12T05:54:58.150Z,989.80
2017-12-12T05:55:33.478Z,989.81
2017-12-12T05:56:08.870Z,989.83
2017-12-12T05:56:44.198Z,989.81
2017-12-12T05:57:19.697Z,989.87
2017-12-12T05:57:55.122Z,989.90
2017-12-12T05:58:30.323Z,989.83
2017-12-12T05:59:05.674Z,989.86
2017-12-12T05:59:40.880Z,989.81
2017-12-12T06:00:16.310Z,989.85
2017-12-12T06:00:52.304Z,989.83
2017-12-12T06:01:27.827Z,989.88
2017-12-12T06:02:03.616Z,989.94
2017-12-12T06:02:39.318Z,989.96
2017-12-12T06:03:14.917Z,989.93
2017-12-12T06:03:50.837Z,989.99
2017-12-12T06:04:26.502Z,989.98
2017-12-12T06:05:01.648Z,989.94
2017-12-12T06:05:37.070Z,990.05
2017-12-12T06:06:12.695Z,989.97
2017-12-12T06:06:48.150Z,990.07
2017-12-12T06:07:23.672Z,990.00
2017-12-12T06:07:59.369Z,990.07
2017-12-12T06:08:34.995Z,990.07
2017-12-12T06:09:10.489Z,990.09
2017-12-12T06:09:46.145Z,990.10
2017-12-12T06:10:21.439Z,990.12
2017-12-12T06:10:56.961Z,990.19
2017-12-12T06:11:32.451Z,990.19
2017-12-12T06:12:07.880Z,990.18
2017-12-12T06:12:45.069Z,990.23
2017-12-12T06:13:20.505Z,990.26
2017-12-12T06:13:56.002Z,990.29
2017-12-12T06:14:31.419Z,990.24
2017-12-12T06:15:07.144Z,990.33
2017-12-12T06:15:42.468Z,990.32
2017-12-12T06:16:17.779Z,990.31
2017-12-12T06:16:53.101Z,990.36
2017-12-12T06:17:29.014Z,990.34
2017-12-12T06:18:04.636Z,990.36
2017-12-12T06:18:40.135Z,990.38
2017-12-12T06:19:15.463Z,990.41
2017-12-12T06:19:50.891Z,990.42
2017-12-12T06:20:26.417Z,990.49
2017-12-12T06:21:01.817Z,990.50
2017-12-12T06:21:37.240Z,990.48
2017-12-12T06:22:12.834Z,990.49
2017-12-12T06:22:48.154Z,990.53
2017-12-12T06:23:23.553Z,990.53
2017-12-12T06:23:58.975Z,990.57
2017-12-12T06:24:34.376Z,990.59
2017-12-12T06:25:09.618Z,990.60
2017-12-12T06:25:46.415Z,990.62
2017-12-12T06:26:21.935Z,990.65
2017-12-12T06:26:57.438Z,990.71
2017-12-12T06:27:32.968Z,990.73
2017-12-12T06:28:08.761Z,990.70
2017-12-12T06:28:44.487Z,990.75
2017-12-12T06:29:19.773Z,990.79
2017-12-12T06:29:55.891Z,990.77
2017-12-12T06:30:31.501Z,990.84
2017-12-12T06:31:07.219Z,990.85
2017-12-12T06:31:46.026Z,990.87
2017-12-12T06:32:21.340Z,990.83
2017-12-12T06:32:56.840Z,990.96
2017-12-12T06:33:32.373Z,990.93
2017-12-12T06:34:07.972Z,990.95
2017-12-12T06:34:43.903Z,990.98
2017-12-12T06:35:19.196Z,991.01
2017-12-12T06:35:54.746Z,991.03
2017-12-12T06:36:30.140Z,991.02
2017-12-12T06:37:05.672Z,990.95
2017-12-12T06:37:41.977Z,991.04
2017-12-12T06:38:17.601Z,990.97
2017-12-12T06:38:52.909Z,991.04
2017-12-12T06:39:28.424Z,991.06
2017-12-12T06:40:03.821Z,991.11
2017-12-12T06:40:39.383Z,991.09
2017-12-12T06:41:14.806Z,991.17
2017-12-12T06:41:52.031Z,991.16
2017-12-12T06:42:27.316Z,991.23
2017-12-12T06:43:02.845Z,991.22
2017-12-12T06:43:38.344Z,991.25
2017-12-12T06:44:17.068Z,991.26
2017-12-12T06:44:54.416Z,991.21
2017-12-12T06:45:29.742Z,991.27
2017-12-12T06:46:05.638Z,991.25
2017-12-12T06:46:41.102Z,991.29
2017-12-12T06:47:17.492Z,991.35
2017-12-12T06:47:53.113Z,991.33
2017-12-12T06:48:28.422Z,991.34
2017-12-12T06:49:03.636Z,991.35
2017-12-12T06:49:40.222Z,991.41
2017-12-12T06:50:15.475Z,991.35
2017-12-12T06:50:50.792Z,991.39
2017-12-12T06:51:26.516Z,991.40
2017-12-12T06:52:01.831Z,991.39
2017-12-12T06:52:37.654Z,991.41
2017-12-12T06:53:13.047Z,991.44
2017-12-12T06:53:48.477Z,991.39
2017-12-12T06:54:23.866Z,991.40
2017-12-12T06:54:59.386Z,991.39
2017-12-12T06:55:34.682Z,991.44
2017-12-12T06:56:12.503Z,991.48
2017-12-12T06:56:47.694Z,991.54
2017-12-12T06:57:23.157Z,991.53
2017-12-12T06:57:58.849Z,991.60
2017-12-12T06:58:34.276Z,991.58
2017-12-12T06:59:09.570Z,991.56
2017-12-12T06:59:45.189Z,991.64
2017-12-12T07:00:21.686Z,991.67
2017-12-12T07:01:00.321Z,991.72
2017-12-12T07:01:35.615Z,991.75
2017-12-12T07:02:11.039Z,991.76
2017-12-12T07:02:46.555Z,991.83
2017-12-12T07:03:21.975Z,991.80
2017-12-12T07:03:57.772Z,991.84
2017-12-12T07:04:33.412Z,991.83
2017-12-12T07:05:09.607Z,991.86
2017-12-12T07:05:47.633Z,991.87
2017-12-12T07:06:23.028Z,991.90
2017-12-12T07:06:59.154Z,991.89
2017-12-12T07:07:38.750Z,991.92
2017-12-12T07:08:14.207Z,991.93
2017-12-12T07:08:52.715Z,991.96
2017-12-12T07:09:28.236Z,991.97
2017-12-12T07:10:03.731Z,992.01
2017-12-12T07:10:39.758Z,992.05
2017-12-12T07:11:15.247Z,992.08
2017-12-12T07:11:53.093Z,992.11
2017-12-12T07:12:28.667Z,992.04
2017-12-12T07:13:04.594Z,992.08
2017-12-12T07:13:40.015Z,992.09
2017-12-12T07:14:15.338Z,992.04
2017-12-12T07:14:50.846Z,992.12
2017-12-12T07:15:26.270Z,992.15
2017-12-12T07:16:01.965Z,992.20
2017-12-12T07:16:37.288Z,992.15
2017-12-12T07:17:12.778Z,992.25
2017-12-12T07:17:49.006Z,992.23
2017-12-12T07:18:24.394Z,992.30
2017-12-12T07:19:00.051Z,992.29
2017-12-12T07:19:35.451Z,992.28
2017-12-12T07:20:10.673Z,992.33
2017-12-12T07:20:46.073Z,992.36
2017-12-12T07:21:22.596Z,992.38
2017-12-12T07:21:58.100Z,992.41
2017-12-12T07:22:33.620Z,992.37
2017-12-12T07:23:09.018Z,992.49
2017-12-12T07:23:44.746Z,992.48